Sulphur, Nevada
Current Conditions -  °F | °C
As of 10:56 PM on Monday 20 Oct 2014 (Local Time) from KWMC Reporting Station
Light Rain Light Rain  
Wind Chill: 57°   Ceiling: 10000
Heat Index: 57°   Visibility: 10mi
Dew Point: 37°   Wind: 21mph
Humidity: 47%   Direction: 260°W
Pressure: 29.9"   Gusts: 28mph
Location:  41.1353°N, 118.186°W
Report Text: KWMC 210556Z AUTO 26018G24KT 10SM -RA BKN100 OVC120 14/03 A2990 RMK AO2 PK WND 26031/0525 RAB47 SLP093 P0000 60000 T01390028 10233 20133 53023
Loading
Personal Weather Stations






























Interactive Weather Map
Tropical Storm Tracking
New forecast layout! Learn more

10-Day Weather Forecast

Advertisements
Track Severe Weather on mobile